Genco Loire — V7GN8 — position and weather

sailwx.info

Track history (hours):
 
Tides and Currents Weather Stations Pressure Air Temp Water Temp Dewpoint Dewpoint Depression Visibility Wind Speed Wind Dir Waves Ship Positions

Genco Loire

Last reported at 2017-Apr-26 02:07 UTC. Time now 2017-Apr-30 09:03 UTC.
Position N 40°27' W 073°49'.

Length 190 m; draft 10.9 m.

MMSI: 538002760.

Date/timePositionNaut miles runAvg speedWind from/ knotsBaromVisibWave heightAir tempDewpointWater temp
2017-Apr-26 02:07N 40°27' W 073°49'3 9.3
2017-Apr-26 01:46N 40°29' W 073°53'310.4
2017-Apr-26 01:30N 40°30' W 073°56'5 9.8
2017-Apr-26 01:00N 40°32' W 074°01'510.2
2017-Apr-26 00:30N 40°37' W 074°03'3 6.4
2017-Apr-26 00:00N 40°39' W 074°07'2 3.3
2017-Apr-25 23:30N 40°40' W 074°09'1 2.7
2017-Apr-25 23:00N 40°41' W 074°08'0 0.0
2017-Apr-25 22:30N 40°41' W 074°08'0 0.0
2017-Apr-25 22:00N 40°41' W 074°08'0 0.0
2017-Apr-25 21:30N 40°41' W 074°08'0 0.0
2017-Apr-25 21:00N 40°41' W 074°08'0 0.0
2017-Apr-25 20:30N 40°41' W 074°08'0 0.0
2017-Apr-25 20:00N 40°41' W 074°08'0 0.0
2017-Apr-25 19:30N 40°41' W 074°08'0 0.0
2017-Apr-25 19:00N 40°41' W 074°08'0 0.0
2017-Apr-25 18:30N 40°41' W 074°08'0 0.0
2017-Apr-25 18:00N 40°41' W 074°08'0 0.0
2017-Apr-25 17:30N 40°41' W 074°08'0 0.0
2017-Apr-25 16:57N 40°41' W 074°08'0 0.0
2017-Apr-25 16:30N 40°41' W 074°08'0 0.0
2017-Apr-25 16:00N 40°41' W 074°08'0 0.0
2017-Apr-25 15:30N 40°41' W 074°08'0 0.0
2017-Apr-25 15:00N 40°41' W 074°08'0 0.0
2017-Apr-25 14:30N 40°41' W 074°08'0 0.0
2017-Apr-25 13:30N 40°41' W 074°08'0 0.0
2017-Apr-25 13:00N 40°41' W 074°08'0 0.0
2017-Apr-25 12:30N 40°41' W 074°08'0 0.0
2017-Apr-25 12:00N 40°41' W 074°08'0 0.0
2017-Apr-25 11:30N 40°41' W 074°08'0 0.0
2017-Apr-25 11:00N 40°41' W 074°08'0 0.0
2017-Apr-25 10:30N 40°41' W 074°08'0 0.0
2017-Apr-25 10:00N 40°41' W 074°08'0 0.0
2017-Apr-25 09:30N 40°41' W 074°08'0 0.0
2017-Apr-25 09:00N 40°41' W 074°08'0 0.0
2017-Apr-25 08:30N 40°41' W 074°08'0 0.0
2017-Apr-25 08:00N 40°41' W 074°08'0 0.0
2017-Apr-25 07:30N 40°41' W 074°08'0 0.0
2017-Apr-25 07:00N 40°41' W 074°08'0 0.0
2017-Apr-25 06:30N 40°41' W 074°08'0 0.0
2017-Apr-25 06:00N 40°41' W 074°08'0 0.0
2017-Apr-25 05:30N 40°41' W 074°08'0 0.0
2017-Apr-25 05:00N 40°41' W 074°08'0 0.0
2017-Apr-25 04:30N 40°41' W 074°08'0 0.0
2017-Apr-25 04:00N 40°41' W 074°08'0 0.0
2017-Apr-25 03:30N 40°41' W 074°08'0 0.0
2017-Apr-25 03:00N 40°41' W 074°08'0 0.0
2017-Apr-25 02:30N 40°41' W 074°08'0 0.0
2017-Apr-25 02:00N 40°41' W 074°08'0 0.0
2017-Apr-25 01:30N 40°41' W 074°08'0 0.0
2017-Apr-25 01:00N 40°41' W 074°08'0 0.0
2017-Apr-25 00:30N 40°41' W 074°08'0 0.0
2017-Apr-25 00:00N 40°41' W 074°08'0 0.0
2017-Apr-24 23:29N 40°41' W 074°08'0 0.0
2017-Apr-24 23:00N 40°41' W 074°08'0 0.0
2017-Apr-24 22:30N 40°41' W 074°08'0 0.0
2017-Apr-24 22:00N 40°41' W 074°08'0 0.0
2017-Apr-24 21:30N 40°41' W 074°08'0 0.0
2017-Apr-24 20:59N 40°41' W 074°08'0 0.0
2017-Apr-24 20:30N 40°41' W 074°08'0 0.0
2017-Apr-24 19:59N 40°41' W 074°08'0 0.0
2017-Apr-24 19:26N 40°41' W 074°08'0 0.0
2017-Apr-24 19:00N 40°41' W 074°08'0 0.0
2017-Apr-24 18:29N 40°41' W 074°08'0 0.0
2017-Apr-24 18:00N 40°41' W 074°08'0 0.0
2017-Apr-24 17:29N 40°41' W 074°08'0 0.0
2017-Apr-24 17:00N 40°41' W 074°08'0 0.0
2017-Apr-24 16:29N 40°41' W 074°08'0 0.0
2017-Apr-24 15:59N 40°41' W 074°08'0 0.0
2017-Apr-24 15:29N 40°41' W 074°08'0 0.0
2017-Apr-24 14:59N 40°41' W 074°08'0 0.0
2017-Apr-24 14:29N 40°41' W 074°08'0 0.0
2017-Apr-24 13:29N 40°41' W 074°08'0 0.0
2017-Apr-24 12:59N 40°41' W 074°08'0 0.0
2017-Apr-24 12:29N 40°41' W 074°08'0 0.0
2017-Apr-24 11:59N 40°41' W 074°08'0 0.0
2017-Apr-24 11:29N 40°41' W 074°08'0 0.0
2017-Apr-24 10:59N 40°41' W 074°08'0 0.0
2017-Apr-24 10:29N 40°41' W 074°08'0 0.0
2017-Apr-24 09:59N 40°41' W 074°08'0 0.0
2017-Apr-24 09:29N 40°41' W 074°08'0 0.0
2017-Apr-24 08:59N 40°41' W 074°08'0 0.0
2017-Apr-24 08:29N 40°41' W 074°08'0 0.0
2017-Apr-24 07:59N 40°41' W 074°08'0 0.0
2017-Apr-24 07:29N 40°41' W 074°08'0 0.0
2017-Apr-24 06:59N 40°41' W 074°08'0 0.0
2017-Apr-24 06:29N 40°41' W 074°08'0 0.0
2017-Apr-24 05:59N 40°41' W 074°08'0 0.0
2017-Apr-24 05:29N 40°41' W 074°08'0 0.0
2017-Apr-24 04:59N 40°41' W 074°08'0 0.0
2017-Apr-24 04:29N 40°41' W 074°08'0 0.0
2017-Apr-24 03:59N 40°41' W 074°08'0 0.0
2017-Apr-24 03:29N 40°41' W 074°08'0 0.0
2017-Apr-24 02:59N 40°41' W 074°08'0 0.0
2017-Apr-24 02:29N 40°41' W 074°08'0 0.0
2017-Apr-24 01:59N 40°41' W 074°08'0 0.0
2017-Apr-24 01:29N 40°41' W 074°08'0 0.0
2017-Apr-24 00:59N 40°41' W 074°08'0 0.0
2017-Apr-24 00:29N 40°41' W 074°08'0 0.0
2017-Apr-23 23:59N 40°41' W 074°08'0 0.0
2017-Apr-23 23:29N 40°41' W 074°08'0 0.0
2017-Apr-23 22:59N 40°41' W 074°08'0 0.0
2017-Apr-23 22:29N 40°41' W 074°08'0 0.0
2017-Apr-23 21:59N 40°41' W 074°08'0 0.0
2017-Apr-23 21:29N 40°41' W 074°08'0 0.0
2017-Apr-23 20:59N 40°41' W 074°08'0 0.0
2017-Apr-23 20:29N 40°41' W 074°08'0 0.0
2017-Apr-23 19:59N 40°41' W 074°08'0 0.0
2017-Apr-23 19:29N 40°41' W 074°08'0 0.0
2017-Apr-23 18:59N 40°41' W 074°08'0 0.0
2017-Apr-23 18:29N 40°41' W 074°08'0 0.0
2017-Apr-23 17:59N 40°41' W 074°08'0 0.0
2017-Apr-23 17:29N 40°41' W 074°08'0 0.0
2017-Apr-23 16:59N 40°41' W 074°08'0 0.0
2017-Apr-23 16:29N 40°41' W 074°08'0 0.0
2017-Apr-23 15:59N 40°41' W 074°08'0 0.0
2017-Apr-23 15:29N 40°41' W 074°08'0 0.0
2017-Apr-23 14:59N 40°41' W 074°08'0 0.0
2017-Apr-23 13:59N 40°41' W 074°08'0 0.0
2017-Apr-23 13:29N 40°41' W 074°08'0 0.0
2017-Apr-23 12:59N 40°41' W 074°08'0 0.0
2017-Apr-23 12:29N 40°41' W 074°08'0 0.0
2017-Apr-23 11:59N 40°41' W 074°08'0 0.0
2017-Apr-23 11:29N 40°41' W 074°08'0 0.0
2017-Apr-23 10:59N 40°41' W 074°08'0 0.0
2017-Apr-23 10:29N 40°41' W 074°08'0 0.0
2017-Apr-23 09:53N 40°41' W 074°08'0 0.0
2017-Apr-23 09:29N 40°41' W 074°08'0 0.0
2017-Apr-23 08:59N 40°41' W 074°08'0 0.0
2017-Apr-23 08:28N 40°41' W 074°08'0 0.0
2017-Apr-23 07:59N 40°41' W 074°08'0 0.0
2017-Apr-23 07:29N 40°41' W 074°08'0 0.0
2017-Apr-23 06:59N 40°41' W 074°08'0 0.0
2017-Apr-23 06:29N 40°41' W 074°08'0 0.0
2017-Apr-23 05:59N 40°41' W 074°08'0 0.0
2017-Apr-23 05:28N 40°41' W 074°08'0 0.0
2017-Apr-23 04:59N 40°41' W 074°08'0 0.0
2017-Apr-23 04:29N 40°41' W 074°08'0 0.0
2017-Apr-23 03:58N 40°41' W 074°08'0 0.0
2017-Apr-23 03:28N 40°41' W 074°08'0 0.0
2017-Apr-23 02:58N 40°41' W 074°08'0 0.0
2017-Apr-23 02:28N 40°41' W 074°08'0 0.0
2017-Apr-23 01:55N 40°41' W 074°08'0 0.0
2017-Apr-23 01:28N 40°41' W 074°08'0 0.0
2017-Apr-23 00:58N 40°41' W 074°08'0 0.0
2017-Apr-23 00:28N 40°41' W 074°08'0 0.0
2017-Apr-22 23:58N 40°41' W 074°08'0 0.0
2017-Apr-22 23:28N 40°41' W 074°08'0 0.0
2017-Apr-22 22:58N 40°41' W 074°08'0 0.0
2017-Apr-22 22:28N 40°41' W 074°08'0 0.0
2017-Apr-22 21:58N 40°41' W 074°08'0 0.0
2017-Apr-22 21:28N 40°41' W 074°08'0 0.0
2017-Apr-22 20:58N 40°41' W 074°08'0 0.0
2017-Apr-22 20:28N 40°41' W 074°08'0 0.0
2017-Apr-22 19:58N 40°41' W 074°08'0 0.0
2017-Apr-22 19:28N 40°41' W 074°08'0 0.0
2017-Apr-22 18:58N 40°41' W 074°08'0 0.0
2017-Apr-22 18:28N 40°41' W 074°08'0 0.0
2017-Apr-22 17:58N 40°41' W 074°08'0 0.0
2017-Apr-22 17:28N 40°41' W 074°08'0 0.0
2017-Apr-22 16:58N 40°41' W 074°08'0 0.0
2017-Apr-22 16:28N 40°41' W 074°08'0 0.0
2017-Apr-22 15:58N 40°41' W 074°08'0 0.0
2017-Apr-22 15:28N 40°41' W 074°08'0 0.0
2017-Apr-22 14:58N 40°41' W 074°08'0 0.0
2017-Apr-22 14:28N 40°41' W 074°08'0 0.0
2017-Apr-22 13:28N 40°41' W 074°08'0 0.0
2017-Apr-22 12:58N 40°41' W 074°08'0 0.0
2017-Apr-22 12:28N 40°41' W 074°08'0 0.0
2017-Apr-22 11:58N 40°41' W 074°08'0 0.0
2017-Apr-22 11:28N 40°41' W 074°08'0 0.0
2017-Apr-22 10:58N 40°41' W 074°08'0 0.0
2017-Apr-22 10:28N 40°41' W 074°08'0 0.0
2017-Apr-22 09:58N 40°41' W 074°08'0 0.0
2017-Apr-22 09:28N 40°41' W 074°08'0 0.0
2017-Apr-22 08:58N 40°41' W 074°08'0 0.0
2017-Apr-22 08:28N 40°41' W 074°08'0 0.0
2017-Apr-22 07:58N 40°41' W 074°08'0 0.0
2017-Apr-22 07:28N 40°41' W 074°08'0 0.0
2017-Apr-22 06:58N 40°41' W 074°08'0 0.0
2017-Apr-22 06:28N 40°41' W 074°08'0 0.0
2017-Apr-22 05:58N 40°41' W 074°08'0 0.0
2017-Apr-22 05:28N 40°41' W 074°08'0 0.0
2017-Apr-22 04:58N 40°41' W 074°08'0 0.0
2017-Apr-22 04:28N 40°41' W 074°08'0 0.0
2017-Apr-22 03:58N 40°41' W 074°08'0 0.0
2017-Apr-22 03:28N 40°41' W 074°08'0 0.0
2017-Apr-22 02:58N 40°41' W 074°08'0 0.0
2017-Apr-22 02:28N 40°41' W 074°08'0 0.0
2017-Apr-22 01:58N 40°41' W 074°08'0 0.0
2017-Apr-22 01:28N 40°41' W 074°08'0 0.0
2017-Apr-22 00:58N 40°41' W 074°08'0 0.0
2017-Apr-22 00:28N 40°41' W 074°08'0 0.0
2017-Apr-21 23:58N 40°41' W 074°08'0 0.0
2017-Apr-21 23:28N 40°41' W 074°08'0 0.0
2017-Apr-21 22:58N 40°41' W 074°08'0 0.0
2017-Apr-21 22:28N 40°41' W 074°08'0 0.0
2017-Apr-21 21:58N 40°41' W 074°08'0 0.0
2017-Apr-21 21:28N 40°41' W 074°08'0 0.0
2017-Apr-21 20:58N 40°41' W 074°08'0 0.0
2017-Apr-21 20:28N 40°41' W 074°08'0 0.0
2017-Apr-21 19:58N 40°41' W 074°08'0 0.0
2017-Apr-21 19:28N 40°41' W 074°08'0 0.0
2017-Apr-21 18:55N 40°41' W 074°08'0 0.0
2017-Apr-21 18:28N 40°41' W 074°08'0 0.0
2017-Apr-21 17:58N 40°41' W 074°08'0 0.0
2017-Apr-21 17:28N 40°41' W 074°08'0 0.0
2017-Apr-21 15:31N 40°41' W 074°08'0 0.1
2017-Apr-21 15:28N 40°41' W 074°08'0 0.0
2017-Apr-21 14:55N 40°41' W 074°08'0 0.0
2017-Apr-21 14:28N 40°41' W 074°08'0 0.0
2017-Apr-21 13:25N 40°41' W 074°08'0 0.0
2017-Apr-21 12:58N 40°41' W 074°08'0 0.0
2017-Apr-21 12:28N 40°41' W 074°08'0 0.0
2017-Apr-21 11:58N 40°41' W 074°08'0 0.0
2017-Apr-21 11:28N 40°41' W 074°08'0 0.0
2017-Apr-21 10:58N 40°41' W 074°08'0 0.0
2017-Apr-21 10:26N 40°41' W 074°08'0 0.0
2017-Apr-21 09:58N 40°41' W 074°08'0 0.0
2017-Apr-21 09:28N 40°41' W 074°08'0 0.0
2017-Apr-21 08:58N 40°41' W 074°08'0 0.0
2017-Apr-21 08:28N 40°41' W 074°08'0 0.0
2017-Apr-21 07:55N 40°41' W 074°08'0 0.0
2017-Apr-21 07:28N 40°41' W 074°08'0 0.0
2017-Apr-21 06:58N 40°41' W 074°08'0 0.0
2017-Apr-21 06:28N 40°41' W 074°08'0 0.0
2017-Apr-21 05:58N 40°41' W 074°08'0 0.0
2017-Apr-21 05:28N 40°41' W 074°08'0 0.0
2017-Apr-21 04:58N 40°41' W 074°08'0 0.0
2017-Apr-21 04:28N 40°41' W 074°08'0 0.0
2017-Apr-21 03:58N 40°41' W 074°08'0 0.0
2017-Apr-21 03:28N 40°41' W 074°08'0 0.0
2017-Apr-21 02:58N 40°41' W 074°08'0 0.0
2017-Apr-21 02:28N 40°41' W 074°08'0 0.0
2017-Apr-21 01:58N 40°41' W 074°08'0 0.0
2017-Apr-21 01:25N 40°41' W 074°08'0 0.0
2017-Apr-21 00:58N 40°41' W 074°08'0 0.0
2017-Apr-21 00:28N 40°41' W 074°08'0 0.0
2017-Apr-20 23:58N 40°41' W 074°08'0 0.7
2017-Apr-20 23:30N 40°41' W 074°09'2 3.2
2017-Apr-20 23:00N 40°39' W 074°09'2 3.5
2017-Apr-20 22:30N 40°39' W 074°07'2 3.6
2017-Apr-20 22:00N 40°39' W 074°04'1 2.8
2017-Apr-20 21:30N 40°40' W 074°03'1 2.5
2017-Apr-20 20:59N 40°41' W 074°04'0 0.0
2017-Apr-20 20:29N 40°41' W 074°04'0 0.0
2017-Apr-20 19:59N 40°41' W 074°04'0 0.0
2017-Apr-20 19:29N 40°41' W 074°04'0 0.0
2017-Apr-20 18:59N 40°41' W 074°04'0 0.0
2017-Apr-20 18:29N 40°41' W 074°04'0 0.0
2017-Apr-20 17:59N 40°41' W 074°04'0 0.0
2017-Apr-20 17:29N 40°41' W 074°04'0 0.0
2017-Apr-20 16:59N 40°41' W 074°04'0 0.0
2017-Apr-20 16:29N 40°41' W 074°04'0 0.0
2017-Apr-20 15:59N 40°41' W 074°04'0 0.0
2017-Apr-20 15:29N 40°41' W 074°04'0 0.0
2017-Apr-20 14:59N 40°41' W 074°04'0 0.0
2017-Apr-20 14:29N 40°41' W 074°04'0 0.0
2017-Apr-20 13:29N 40°41' W 074°04'0 0.0
2017-Apr-20 12:59N 40°41' W 074°04'0 0.0
2017-Apr-20 12:29N 40°41' W 074°04'0 0.0
2017-Apr-20 11:59N 40°41' W 074°04'0 0.0
2017-Apr-20 11:29N 40°41' W 074°04'0 0.0
2017-Apr-20 10:59N 40°41' W 074°04'0 0.0
2017-Apr-20 10:29N 40°41' W 074°04'0 0.0
2017-Apr-20 09:59N 40°41' W 074°04'0 0.0
2017-Apr-20 09:29N 40°41' W 074°04'0 0.0
2017-Apr-20 08:59N 40°41' W 074°04'0 0.0
2017-Apr-20 08:29N 40°41' W 074°04'0 0.0
2017-Apr-20 07:59N 40°41' W 074°04'0 0.0
2017-Apr-20 07:29N 40°41' W 074°04'0 0.0
2017-Apr-20 06:59N 40°41' W 074°04'0 0.0
2017-Apr-20 06:29N 40°41' W 074°04'0 0.0
2017-Apr-20 05:59N 40°41' W 074°04'0 0.0
2017-Apr-20 05:29N 40°41' W 074°04'0 0.0
2017-Apr-20 04:59N 40°41' W 074°04'0 0.0
2017-Apr-20 04:29N 40°41' W 074°04'0 0.0
2017-Apr-20 03:59N 40°41' W 074°04'0 0.0
2017-Apr-20 03:29N 40°41' W 074°04'0 0.0
2017-Apr-20 02:59N 40°41' W 074°04'0 0.0
2017-Apr-20 02:29N 40°41' W 074°04'0 0.0
2017-Apr-20 01:59N 40°41' W 074°04'0 0.0
2017-Apr-20 01:29N 40°41' W 074°04'0 0.0
2017-Apr-20 00:59N 40°41' W 074°04'0 0.0
2017-Apr-20 00:29N 40°41' W 074°04'0 0.0
2017-Apr-19 23:59N 40°41' W 074°04'0 0.0
2017-Apr-19 23:29N 40°41' W 074°04'0 0.0
2017-Apr-19 22:59N 40°41' W 074°04'0 0.0
2017-Apr-19 22:29N 40°41' W 074°04'0 0.0
2017-Apr-19 21:59N 40°41' W 074°04'0 0.0
2017-Apr-19 21:29N 40°41' W 074°04'0 0.0
2017-Apr-19 20:59N 40°41' W 074°04'0 0.0
2017-Apr-19 20:29N 40°41' W 074°04'0 0.0
2017-Apr-19 19:59N 40°41' W 074°04'0 0.0
2017-Apr-19 19:29N 40°41' W 074°04'0 0.0
2017-Apr-19 18:59N 40°41' W 074°04'0 0.0
2017-Apr-19 18:29N 40°41' W 074°04'0 0.0
2017-Apr-19 17:59N 40°41' W 074°04'0 0.0
2017-Apr-19 17:29N 40°41' W 074°04'0 0.0
2017-Apr-19 16:59N 40°41' W 074°04'0 0.0
2017-Apr-19 16:29N 40°41' W 074°04'0 0.0
2017-Apr-19 15:59N 40°41' W 074°04'0 0.0
2017-Apr-19 15:29N 40°41' W 074°04'0 0.0
2017-Apr-19 14:59N 40°41' W 074°04'0 0.0
2017-Apr-19 14:29N 40°41' W 074°04'0 0.0
2017-Apr-19 13:29N 40°41' W 074°04'0 0.0
2017-Apr-19 12:59N 40°41' W 074°04'0 0.0
2017-Apr-19 12:29N 40°41' W 074°04'0 0.0
2017-Apr-19 11:59N 40°41' W 074°04'0 0.0
2017-Apr-19 11:29N 40°41' W 074°04'0 0.0
2017-Apr-19 10:59N 40°41' W 074°04'0 0.0
2017-Apr-19 10:29N 40°41' W 074°04'0 0.0
2017-Apr-19 09:59N 40°41' W 074°04'0 0.0
2017-Apr-19 09:29N 40°41' W 074°04'0 0.0
2017-Apr-19 08:59N 40°41' W 074°04'0 0.0
2017-Apr-19 08:29N 40°41' W 074°04'0 0.0
2017-Apr-19 07:59N 40°41' W 074°04'0 0.0
2017-Apr-19 07:29N 40°41' W 074°04'0 0.0
2017-Apr-19 06:59N 40°41' W 074°04'0 0.0
2017-Apr-19 06:29N 40°41' W 074°04'0 0.0
2017-Apr-19 05:59N 40°41' W 074°04'0 0.0
2017-Apr-19 05:29N 40°41' W 074°04'0 0.0
2017-Apr-19 04:59N 40°41' W 074°04'0 0.0
2017-Apr-19 04:29N 40°41' W 074°04'0 0.0
2017-Apr-19 03:59N 40°41' W 074°04'0 0.0
2017-Apr-19 03:29N 40°41' W 074°04'0 0.0
2017-Apr-19 02:59N 40°41' W 074°04'0 0.0
2017-Apr-19 02:29N 40°41' W 074°04'0 0.0
2017-Apr-19 01:59N 40°41' W 074°04'0 0.0
2017-Apr-19 01:29N 40°41' W 074°04'0 0.0
2017-Apr-19 00:59N 40°41' W 074°04'0 0.0
2017-Apr-19 00:29N 40°41' W 074°04'0 0.0
2017-Apr-18 23:59N 40°41' W 074°04'0 0.0
2017-Apr-18 23:29N 40°41' W 074°04'0 0.0
2017-Apr-18 22:59N 40°41' W 074°04'0 0.0
2017-Apr-18 22:29N 40°41' W 074°04'0 0.0
2017-Apr-18 21:59N 40°41' W 074°04'0 0.0
2017-Apr-18 21:29N 40°41' W 074°04'0 0.0
2017-Apr-18 20:59N 40°41' W 074°04'0 0.0
2017-Apr-18 20:29N 40°41' W 074°04'0 0.0
2017-Apr-18 19:59N 40°41' W 074°04'0 0.0
2017-Apr-18 19:29N 40°41' W 074°04'0 0.0
2017-Apr-18 18:59N 40°41' W 074°04'0 0.0
2017-Apr-18 18:29N 40°41' W 074°04'0 0.0
2017-Apr-18 17:59N 40°41' W 074°04'0 0.0
2017-Apr-18 17:29N 40°41' W 074°04'0 0.0
2017-Apr-18 16:59N 40°41' W 074°04'0 0.0
2017-Apr-18 16:29N 40°41' W 074°04'0 0.0
2017-Apr-18 15:59N 40°41' W 074°04'0 0.0
2017-Apr-18 15:29N 40°41' W 074°04'0 0.0
2017-Apr-18 14:59N 40°41' W 074°04'0 0.0
2017-Apr-18 14:29N 40°41' W 074°04'0 0.0
2017-Apr-18 13:29N 40°41' W 074°04'0 0.0
2017-Apr-18 12:59N 40°41' W 074°04'0 0.0
2017-Apr-18 12:29N 40°41' W 074°04'0 0.0
2017-Apr-18 11:59N 40°41' W 074°04'0 0.0
2017-Apr-18 11:29N 40°41' W 074°04'0 0.0
2017-Apr-18 10:59N 40°41' W 074°04'0 0.0
2017-Apr-18 10:29N 40°41' W 074°04'0 0.0
2017-Apr-18 09:59N 40°41' W 074°04'0 0.0
2017-Apr-18 09:29N 40°41' W 074°04'0 0.0
2017-Apr-18 08:59N 40°41' W 074°04'0 0.0
2017-Apr-18 08:29N 40°41' W 074°04'0 0.0
2017-Apr-18 07:59N 40°41' W 074°04'0 0.0
2017-Apr-18 07:29N 40°41' W 074°04'0 0.0
2017-Apr-18 06:59N 40°41' W 074°04'0 0.0
2017-Apr-18 06:29N 40°41' W 074°04'0 0.0
2017-Apr-18 05:59N 40°41' W 074°04'0 0.0
2017-Apr-18 05:29N 40°41' W 074°04'0 0.0
2017-Apr-18 04:59N 40°41' W 074°04'0 0.0
2017-Apr-18 04:29N 40°41' W 074°04'0 0.0
2017-Apr-18 03:59N 40°41' W 074°04'0 0.0
2017-Apr-18 03:29N 40°41' W 074°04'0 0.0
2017-Apr-18 02:59N 40°41' W 074°04'0 0.0
2017-Apr-18 02:29N 40°41' W 074°04'0 0.0
2017-Apr-18 01:59N 40°41' W 074°04'0 0.0
2017-Apr-18 01:29N 40°41' W 074°04'0 0.0
2017-Apr-18 00:59N 40°41' W 074°04'0 0.0
2017-Apr-18 00:29N 40°41' W 074°04'0 0.0
2017-Apr-17 23:59N 40°41' W 074°04'0 0.0
2017-Apr-17 23:29N 40°41' W 074°04'0 0.0
2017-Apr-17 22:59N 40°41' W 074°04'0 0.0
2017-Apr-17 22:29N 40°41' W 074°04'0 0.0
2017-Apr-17 21:59N 40°41' W 074°04'0 0.0
2017-Apr-17 21:29N 40°41' W 074°04'0 0.0
2017-Apr-17 20:56N 40°41' W 074°04'0 0.0
2017-Apr-17 20:29N 40°41' W 074°04'0 0.0
2017-Apr-17 19:59N 40°41' W 074°04'0 0.0
2017-Apr-17 19:29N 40°41' W 074°04'0 0.0
2017-Apr-17 18:59N 40°41' W 074°04'0 0.0
2017-Apr-17 18:29N 40°41' W 074°04'0 0.0
2017-Apr-17 17:59N 40°41' W 074°04'0 0.0
2017-Apr-17 17:29N 40°41' W 074°04'0 0.0
2017-Apr-17 16:59N 40°41' W 074°04'0 0.0
2017-Apr-17 16:29N 40°41' W 074°04'0 0.0
2017-Apr-17 15:59N 40°41' W 074°04'0 0.0
2017-Apr-17 15:29N 40°41' W 074°04'0 0.0
2017-Apr-17 14:59N 40°41' W 074°04'0 0.0
2017-Apr-17 14:29N 40°41' W 074°04'0 0.0
2017-Apr-17 13:29N 40°41' W 074°04'0 0.0
2017-Apr-17 12:59N 40°41' W 074°04'0 0.0
2017-Apr-17 12:29N 40°41' W 074°04'0 0.0
2017-Apr-17 11:59N 40°41' W 074°04'0 0.0
2017-Apr-17 11:29N 40°41' W 074°04'0 0.0
2017-Apr-17 10:59N 40°41' W 074°04'0 0.0
2017-Apr-17 10:29N 40°41' W 074°04'0 0.0
2017-Apr-17 09:59N 40°41' W 074°04'0 0.0
2017-Apr-17 09:29N 40°41' W 074°04'0 0.0
2017-Apr-17 08:59N 40°41' W 074°04'0 0.0
2017-Apr-17 08:29N 40°41' W 074°04'0 0.0
2017-Apr-17 07:59N 40°41' W 074°04'0 0.0
2017-Apr-17 07:29N 40°41' W 074°04'0 0.0
2017-Apr-17 06:59N 40°41' W 074°04'0 0.0
2017-Apr-17 06:29N 40°41' W 074°04'0 0.0
2017-Apr-17 05:59N 40°41' W 074°04'0 0.0
2017-Apr-17 05:29N 40°41' W 074°04'0 0.0
2017-Apr-17 04:59N 40°41' W 074°04'0 0.0
2017-Apr-17 04:29N 40°41' W 074°04'0 0.0
2017-Apr-17 03:59N 40°41' W 074°04'0 0.0
2017-Apr-17 03:29N 40°41' W 074°04'0 0.0
2017-Apr-17 02:59N 40°41' W 074°04'0 0.0
2017-Apr-17 02:29N 40°41' W 074°04'0 0.0
2017-Apr-17 01:59N 40°41' W 074°04'0 0.0
2017-Apr-17 01:29N 40°41' W 074°04'0 0.0
2017-Apr-17 00:59N 40°41' W 074°04'0 0.0
2017-Apr-17 00:29N 40°41' W 074°04'0 0.0
2017-Apr-16 23:59N 40°41' W 074°04'0 0.0
2017-Apr-16 23:29N 40°41' W 074°04'0 0.0
2017-Apr-16 22:59N 40°41' W 074°04'0 0.0
2017-Apr-16 22:29N 40°41' W 074°04'0 0.0
2017-Apr-16 21:59N 40°41' W 074°04'0 0.0
2017-Apr-16 21:29N 40°41' W 074°04'0 0.0
2017-Apr-16 20:59N 40°41' W 074°04'0 0.0
2017-Apr-16 20:29N 40°41' W 074°04'0 0.0
2017-Apr-16 19:59N 40°41' W 074°04'0 0.0
2017-Apr-16 19:26N 40°41' W 074°04'0 0.0
2017-Apr-16 18:59N 40°41' W 074°04'0 0.0
2017-Apr-16 18:29N 40°41' W 074°04'0 0.0
2017-Apr-16 17:59N 40°41' W 074°04'0 0.0
2017-Apr-16 17:29N 40°41' W 074°04'0 0.0
2017-Apr-16 16:59N 40°41' W 074°04'0 0.0
2017-Apr-16 16:26N 40°41' W 074°04'0 0.0
2017-Apr-16 15:59N 40°41' W 074°04'0 0.0
2017-Apr-16 15:29N 40°41' W 074°04'0 0.0
2017-Apr-16 14:59N 40°41' W 074°04'0 0.0
2017-Apr-16 14:29N 40°41' W 074°04'0 0.0
2017-Apr-16 13:29N 40°41' W 074°04'0 0.0
2017-Apr-16 12:59N 40°41' W 074°04'0 0.0
2017-Apr-16 12:29N 40°41' W 074°04'0 0.0
2017-Apr-16 11:59N 40°41' W 074°04'0 0.0
2017-Apr-16 11:29N 40°41' W 074°04'0 0.0
2017-Apr-16 10:59N 40°41' W 074°04'0 0.0
2017-Apr-16 10:29N 40°41' W 074°04'0 0.0
2017-Apr-16 09:59N 40°41' W 074°04'0 0.0
2017-Apr-16 09:29N 40°41' W 074°04'0 0.0
2017-Apr-16 08:59N 40°41' W 074°04'0 0.0
2017-Apr-16 08:29N 40°41' W 074°04'0 0.0
2017-Apr-16 07:59N 40°41' W 074°04'0 0.0
2017-Apr-16 07:29N 40°41' W 074°04'0 0.0
2017-Apr-16 06:59N 40°41' W 074°04'0 0.0
2017-Apr-16 06:29N 40°41' W 074°04'0 0.0
2017-Apr-16 05:59N 40°41' W 074°04'0 0.0
2017-Apr-16 05:29N 40°41' W 074°04'0 0.0
2017-Apr-16 04:59N 40°41' W 074°04'0 0.0
2017-Apr-16 04:29N 40°41' W 074°04'0 0.0
2017-Apr-16 03:59N 40°41' W 074°04'0 0.0
2017-Apr-16 03:29N 40°41' W 074°04'0 0.0
2017-Apr-16 02:59N 40°41' W 074°04'0 0.0
2017-Apr-16 02:29N 40°41' W 074°04'  
Track history (hours):
 
Tides and Currents Weather Stations Pressure Air Temp Water Temp Dewpoint Dewpoint Depression Visibility Wind Speed Wind Dir Waves Ship Positions

Genco Loire

Last reported at 2017-Apr-26 02:07 UTC. Time now 2017-Apr-30 09:03 UTC.
Position N 40°27' W 073°49'.

Length 190 m; draft 10.9 m.

MMSI: 538002760.

Date/timePositionNaut miles runAvg speedWind from/ knotsBaromVisibWave heightAir tempDewpointWater temp
2017-Apr-26 02:07N 40°27' W 073°49'3 9.3
2017-Apr-26 01:46N 40°29' W 073°53'310.4
2017-Apr-26 01:30N 40°30' W 073°56'5 9.8
2017-Apr-26 01:00N 40°32' W 074°01'510.2
2017-Apr-26 00:30N 40°37' W 074°03'3 6.4
2017-Apr-26 00:00N 40°39' W 074°07'2 3.3
2017-Apr-25 23:30N 40°40' W 074°09'1 2.7
2017-Apr-25 23:00N 40°41' W 074°08'0 0.0
2017-Apr-25 22:30N 40°41' W 074°08'0 0.0
2017-Apr-25 22:00N 40°41' W 074°08'0 0.0
2017-Apr-25 21:30N 40°41' W 074°08'0 0.0
2017-Apr-25 21:00N 40°41' W 074°08'0 0.0
2017-Apr-25 20:30N 40°41' W 074°08'0 0.0
2017-Apr-25 20:00N 40°41' W 074°08'0 0.0
2017-Apr-25 19:30N 40°41' W 074°08'0 0.0
2017-Apr-25 19:00N 40°41' W 074°08'0 0.0
2017-Apr-25 18:30N 40°41' W 074°08'0 0.0
2017-Apr-25 18:00N 40°41' W 074°08'0 0.0
2017-Apr-25 17:30N 40°41' W 074°08'0 0.0
2017-Apr-25 16:57N 40°41' W 074°08'0 0.0
2017-Apr-25 16:30N 40°41' W 074°08'0 0.0
2017-Apr-25 16:00N 40°41' W 074°08'0 0.0
2017-Apr-25 15:30N 40°41' W 074°08'0 0.0
2017-Apr-25 15:00N 40°41' W 074°08'0 0.0
2017-Apr-25 14:30N 40°41' W 074°08'0 0.0
2017-Apr-25 13:30N 40°41' W 074°08'0 0.0
2017-Apr-25 13:00N 40°41' W 074°08'0 0.0
2017-Apr-25 12:30N 40°41' W 074°08'0 0.0
2017-Apr-25 12:00N 40°41' W 074°08'0 0.0
2017-Apr-25 11:30N 40°41' W 074°08'0 0.0
2017-Apr-25 11:00N 40°41' W 074°08'0 0.0
2017-Apr-25 10:30N 40°41' W 074°08'0 0.0
2017-Apr-25 10:00N 40°41' W 074°08'0 0.0
2017-Apr-25 09:30N 40°41' W 074°08'0 0.0
2017-Apr-25 09:00N 40°41' W 074°08'0 0.0
2017-Apr-25 08:30N 40°41' W 074°08'0 0.0
2017-Apr-25 08:00N 40°41' W 074°08'0 0.0
2017-Apr-25 07:30N 40°41' W 074°08'0 0.0
2017-Apr-25 07:00N 40°41' W 074°08'0 0.0
2017-Apr-25 06:30N 40°41' W 074°08'0 0.0
2017-Apr-25 06:00N 40°41' W 074°08'0 0.0
2017-Apr-25 05:30N 40°41' W 074°08'0 0.0
2017-Apr-25 05:00N 40°41' W 074°08'0 0.0
2017-Apr-25 04:30N 40°41' W 074°08'0 0.0
2017-Apr-25 04:00N 40°41' W 074°08'0 0.0
2017-Apr-25 03:30N 40°41' W 074°08'0 0.0
2017-Apr-25 03:00N 40°41' W 074°08'0 0.0
2017-Apr-25 02:30N 40°41' W 074°08'0 0.0
2017-Apr-25 02:00N 40°41' W 074°08'0 0.0
2017-Apr-25 01:30N 40°41' W 074°08'0 0.0
2017-Apr-25 01:00N 40°41' W 074°08'0 0.0
2017-Apr-25 00:30N 40°41' W 074°08'0 0.0
2017-Apr-25 00:00N 40°41' W 074°08'0 0.0
2017-Apr-24 23:29N 40°41' W 074°08'0 0.0
2017-Apr-24 23:00N 40°41' W 074°08'0 0.0
2017-Apr-24 22:30N 40°41' W 074°08'0 0.0
2017-Apr-24 22:00N 40°41' W 074°08'0 0.0
2017-Apr-24 21:30N 40°41' W 074°08'0 0.0
2017-Apr-24 20:59N 40°41' W 074°08'0 0.0
2017-Apr-24 20:30N 40°41' W 074°08'0 0.0
2017-Apr-24 19:59N 40°41' W 074°08'0 0.0
2017-Apr-24 19:26N 40°41' W 074°08'0 0.0
2017-Apr-24 19:00N 40°41' W 074°08'0 0.0
2017-Apr-24 18:29N 40°41' W 074°08'0 0.0
2017-Apr-24 18:00N 40°41' W 074°08'0 0.0
2017-Apr-24 17:29N 40°41' W 074°08'0 0.0
2017-Apr-24 17:00N 40°41' W 074°08'0 0.0
2017-Apr-24 16:29N 40°41' W 074°08'0 0.0
2017-Apr-24 15:59N 40°41' W 074°08'0 0.0
2017-Apr-24 15:29N 40°41' W 074°08'0 0.0
2017-Apr-24 14:59N 40°41' W 074°08'0 0.0
2017-Apr-24 14:29N 40°41' W 074°08'0 0.0
2017-Apr-24 13:29N 40°41' W 074°08'0 0.0
2017-Apr-24 12:59N 40°41' W 074°08'0 0.0
2017-Apr-24 12:29N 40°41' W 074°08'0 0.0
2017-Apr-24 11:59N 40°41' W 074°08'0 0.0
2017-Apr-24 11:29N 40°41' W 074°08'0 0.0
2017-Apr-24 10:59N 40°41' W 074°08'0 0.0
2017-Apr-24 10:29N 40°41' W 074°08'0 0.0
2017-Apr-24 09:59N 40°41' W 074°08'0 0.0
2017-Apr-24 09:29N 40°41' W 074°08'0 0.0
2017-Apr-24 08:59N 40°41' W 074°08'0 0.0
2017-Apr-24 08:29N 40°41' W 074°08'0 0.0
2017-Apr-24 07:59N 40°41' W 074°08'0 0.0
2017-Apr-24 07:29N 40°41' W 074°08'0 0.0
2017-Apr-24 06:59N 40°41' W 074°08'0 0.0
2017-Apr-24 06:29N 40°41' W 074°08'0 0.0
2017-Apr-24 05:59N 40°41' W 074°08'0 0.0
2017-Apr-24 05:29N 40°41' W 074°08'0 0.0
2017-Apr-24 04:59N 40°41' W 074°08'0 0.0
2017-Apr-24 04:29N 40°41' W 074°08'0 0.0
2017-Apr-24 03:59N 40°41' W 074°08'0 0.0
2017-Apr-24 03:29N 40°41' W 074°08'0 0.0
2017-Apr-24 02:59N 40°41' W 074°08'0 0.0
2017-Apr-24 02:29N 40°41' W 074°08'0 0.0
2017-Apr-24 01:59N 40°41' W 074°08'0 0.0
2017-Apr-24 01:29N 40°41' W 074°08'0 0.0
2017-Apr-24 00:59N 40°41' W 074°08'0 0.0
2017-Apr-24 00:29N 40°41' W 074°08'0 0.0
2017-Apr-23 23:59N 40°41' W 074°08'0 0.0
2017-Apr-23 23:29N 40°41' W 074°08'0 0.0
2017-Apr-23 22:59N 40°41' W 074°08'0 0.0
2017-Apr-23 22:29N 40°41' W 074°08'0 0.0
2017-Apr-23 21:59N 40°41' W 074°08'0 0.0
2017-Apr-23 21:29N 40°41' W 074°08'0 0.0
2017-Apr-23 20:59N 40°41' W 074°08'0 0.0
2017-Apr-23 20:29N 40°41' W 074°08'0 0.0
2017-Apr-23 19:59N 40°41' W 074°08'0 0.0
2017-Apr-23 19:29N 40°41' W 074°08'0 0.0
2017-Apr-23 18:59N 40°41' W 074°08'0 0.0
2017-Apr-23 18:29N 40°41' W 074°08'0 0.0
2017-Apr-23 17:59N 40°41' W 074°08'0 0.0
2017-Apr-23 17:29N 40°41' W 074°08'0 0.0
2017-Apr-23 16:59N 40°41' W 074°08'0 0.0
2017-Apr-23 16:29N 40°41' W 074°08'0 0.0
2017-Apr-23 15:59N 40°41' W 074°08'0 0.0
2017-Apr-23 15:29N 40°41' W 074°08'0 0.0
2017-Apr-23 14:59N 40°41' W 074°08'0 0.0
2017-Apr-23 13:59N 40°41' W 074°08'0 0.0
2017-Apr-23 13:29N 40°41' W 074°08'0 0.0
2017-Apr-23 12:59N 40°41' W 074°08'0 0.0
2017-Apr-23 12:29N 40°41' W 074°08'0 0.0
2017-Apr-23 11:59N 40°41' W 074°08'0 0.0
2017-Apr-23 11:29N 40°41' W 074°08'0 0.0
2017-Apr-23 10:59N 40°41' W 074°08'0 0.0
2017-Apr-23 10:29N 40°41' W 074°08'0 0.0
2017-Apr-23 09:53N 40°41' W 074°08'0 0.0
2017-Apr-23 09:29N 40°41' W 074°08'0 0.0
2017-Apr-23 08:59N 40°41' W 074°08'0 0.0
2017-Apr-23 08:28N 40°41' W 074°08'0 0.0
2017-Apr-23 07:59N 40°41' W 074°08'0 0.0
2017-Apr-23 07:29N 40°41' W 074°08'0 0.0
2017-Apr-23 06:59N 40°41' W 074°08'0 0.0
2017-Apr-23 06:29N 40°41' W 074°08'0 0.0
2017-Apr-23 05:59N 40°41' W 074°08'0 0.0
2017-Apr-23 05:28N 40°41' W 074°08'0 0.0
2017-Apr-23 04:59N 40°41' W 074°08'0 0.0
2017-Apr-23 04:29N 40°41' W 074°08'0 0.0
2017-Apr-23 03:58N 40°41' W 074°08'0 0.0
2017-Apr-23 03:28N 40°41' W 074°08'0 0.0
2017-Apr-23 02:58N 40°41' W 074°08'0 0.0
2017-Apr-23 02:28N 40°41' W 074°08'0 0.0
2017-Apr-23 01:55N 40°41' W 074°08'0 0.0
2017-Apr-23 01:28N 40°41' W 074°08'0 0.0
2017-Apr-23 00:58N 40°41' W 074°08'0 0.0
2017-Apr-23 00:28N 40°41' W 074°08'0 0.0
2017-Apr-22 23:58N 40°41' W 074°08'0 0.0
2017-Apr-22 23:28N 40°41' W 074°08'0 0.0
2017-Apr-22 22:58N 40°41' W 074°08'0 0.0
2017-Apr-22 22:28N 40°41' W 074°08'0 0.0
2017-Apr-22 21:58N 40°41' W 074°08'0 0.0
2017-Apr-22 21:28N 40°41' W 074°08'0 0.0
2017-Apr-22 20:58N 40°41' W 074°08'0 0.0
2017-Apr-22 20:28N 40°41' W 074°08'0 0.0
2017-Apr-22 19:58N 40°41' W 074°08'0 0.0
2017-Apr-22 19:28N 40°41' W 074°08'0 0.0
2017-Apr-22 18:58N 40°41' W 074°08'0 0.0
2017-Apr-22 18:28N 40°41' W 074°08'0 0.0
2017-Apr-22 17:58N 40°41' W 074°08'0 0.0
2017-Apr-22 17:28N 40°41' W 074°08'0 0.0
2017-Apr-22 16:58N 40°41' W 074°08'0 0.0
2017-Apr-22 16:28N 40°41' W 074°08'0 0.0
2017-Apr-22 15:58N 40°41' W 074°08'0 0.0
2017-Apr-22 15:28N 40°41' W 074°08'0 0.0
2017-Apr-22 14:58N 40°41' W 074°08'0 0.0
2017-Apr-22 14:28N 40°41' W 074°08'0 0.0
2017-Apr-22 13:28N 40°41' W 074°08'0 0.0
2017-Apr-22 12:58N 40°41' W 074°08'0 0.0
2017-Apr-22 12:28N 40°41' W 074°08'0 0.0
2017-Apr-22 11:58N 40°41' W 074°08'0 0.0
2017-Apr-22 11:28N 40°41' W 074°08'0 0.0
2017-Apr-22 10:58N 40°41' W 074°08'0 0.0
2017-Apr-22 10:28N 40°41' W 074°08'0 0.0
2017-Apr-22 09:58N 40°41' W 074°08'0 0.0
2017-Apr-22 09:28N 40°41' W 074°08'0 0.0
2017-Apr-22 08:58N 40°41' W 074°08'0 0.0
2017-Apr-22 08:28N 40°41' W 074°08'0 0.0
2017-Apr-22 07:58N 40°41' W 074°08'0 0.0
2017-Apr-22 07:28N 40°41' W 074°08'0 0.0
2017-Apr-22 06:58N 40°41' W 074°08'0 0.0
2017-Apr-22 06:28N 40°41' W 074°08'0 0.0
2017-Apr-22 05:58N 40°41' W 074°08'0 0.0
2017-Apr-22 05:28N 40°41' W 074°08'0 0.0
2017-Apr-22 04:58N 40°41' W 074°08'0 0.0
2017-Apr-22 04:28N 40°41' W 074°08'0 0.0
2017-Apr-22 03:58N 40°41' W 074°08'0 0.0
2017-Apr-22 03:28N 40°41' W 074°08'0 0.0
2017-Apr-22 02:58N 40°41' W 074°08'0 0.0
2017-Apr-22 02:28N 40°41' W 074°08'0 0.0
2017-Apr-22 01:58N 40°41' W 074°08'0 0.0
2017-Apr-22 01:28N 40°41' W 074°08'0 0.0
2017-Apr-22 00:58N 40°41' W 074°08'0 0.0
2017-Apr-22 00:28N 40°41' W 074°08'0 0.0
2017-Apr-21 23:58N 40°41' W 074°08'0 0.0
2017-Apr-21 23:28N 40°41' W 074°08'0 0.0
2017-Apr-21 22:58N 40°41' W 074°08'0 0.0
2017-Apr-21 22:28N 40°41' W 074°08'0 0.0
2017-Apr-21 21:58N 40°41' W 074°08'0 0.0
2017-Apr-21 21:28N 40°41' W 074°08'0 0.0
2017-Apr-21 20:58N 40°41' W 074°08'0 0.0
2017-Apr-21 20:28N 40°41' W 074°08'0 0.0
2017-Apr-21 19:58N 40°41' W 074°08'0 0.0
2017-Apr-21 19:28N 40°41' W 074°08'0 0.0
2017-Apr-21 18:55N 40°41' W 074°08'0 0.0
2017-Apr-21 18:28N 40°41' W 074°08'0 0.0
2017-Apr-21 17:58N 40°41' W 074°08'0 0.0
2017-Apr-21 17:28N 40°41' W 074°08'0 0.0
2017-Apr-21 15:31N 40°41' W 074°08'0 0.1
2017-Apr-21 15:28N 40°41' W 074°08'0 0.0
2017-Apr-21 14:55N 40°41' W 074°08'0 0.0
2017-Apr-21 14:28N 40°41' W 074°08'0 0.0
2017-Apr-21 13:25N 40°41' W 074°08'0 0.0
2017-Apr-21 12:58N 40°41' W 074°08'0 0.0
2017-Apr-21 12:28N 40°41' W 074°08'0 0.0
2017-Apr-21 11:58N 40°41' W 074°08'0 0.0
2017-Apr-21 11:28N 40°41' W 074°08'0 0.0
2017-Apr-21 10:58N 40°41' W 074°08'0 0.0
2017-Apr-21 10:26N 40°41' W 074°08'0 0.0
2017-Apr-21 09:58N 40°41' W 074°08'0 0.0
2017-Apr-21 09:28N 40°41' W 074°08'0 0.0
2017-Apr-21 08:58N 40°41' W 074°08'0 0.0
2017-Apr-21 08:28N 40°41' W 074°08'0 0.0
2017-Apr-21 07:55N 40°41' W 074°08'0 0.0
2017-Apr-21 07:28N 40°41' W 074°08'0 0.0
2017-Apr-21 06:58N 40°41' W 074°08'0 0.0
2017-Apr-21 06:28N 40°41' W 074°08'0 0.0
2017-Apr-21 05:58N 40°41' W 074°08'0 0.0
2017-Apr-21 05:28N 40°41' W 074°08'0 0.0
2017-Apr-21 04:58N 40°41' W 074°08'0 0.0
2017-Apr-21 04:28N 40°41' W 074°08'0 0.0
2017-Apr-21 03:58N 40°41' W 074°08'0 0.0
2017-Apr-21 03:28N 40°41' W 074°08'0 0.0
2017-Apr-21 02:58N 40°41' W 074°08'0 0.0
2017-Apr-21 02:28N 40°41' W 074°08'0 0.0
2017-Apr-21 01:58N 40°41' W 074°08'0 0.0
2017-Apr-21 01:25N 40°41' W 074°08'0 0.0
2017-Apr-21 00:58N 40°41' W 074°08'0 0.0
2017-Apr-21 00:28N 40°41' W 074°08'0 0.0
2017-Apr-20 23:58N 40°41' W 074°08'0 0.7
2017-Apr-20 23:30N 40°41' W 074°09'2 3.2
2017-Apr-20 23:00N 40°39' W 074°09'2 3.5
2017-Apr-20 22:30N 40°39' W 074°07'2 3.6
2017-Apr-20 22:00N 40°39' W 074°04'1 2.8
2017-Apr-20 21:30N 40°40' W 074°03'1 2.5
2017-Apr-20 20:59N 40°41' W 074°04'0 0.0
2017-Apr-20 20:29N 40°41' W 074°04'0 0.0
2017-Apr-20 19:59N 40°41' W 074°04'0 0.0
2017-Apr-20 19:29N 40°41' W 074°04'0 0.0
2017-Apr-20 18:59N 40°41' W 074°04'0 0.0
2017-Apr-20 18:29N 40°41' W 074°04'0 0.0
2017-Apr-20 17:59N 40°41' W 074°04'0 0.0
2017-Apr-20 17:29N 40°41' W 074°04'0 0.0
2017-Apr-20 16:59N 40°41' W 074°04'0 0.0
2017-Apr-20 16:29N 40°41' W 074°04'0 0.0
2017-Apr-20 15:59N 40°41' W 074°04'0 0.0
2017-Apr-20 15:29N 40°41' W 074°04'0 0.0
2017-Apr-20 14:59N 40°41' W 074°04'0 0.0
2017-Apr-20 14:29N 40°41' W 074°04'0 0.0
2017-Apr-20 13:29N 40°41' W 074°04'0 0.0
2017-Apr-20 12:59N 40°41' W 074°04'0 0.0
2017-Apr-20 12:29N 40°41' W 074°04'0 0.0
2017-Apr-20 11:59N 40°41' W 074°04'0 0.0
2017-Apr-20 11:29N 40°41' W 074°04'0 0.0
2017-Apr-20 10:59N 40°41' W 074°04'0 0.0
2017-Apr-20 10:29N 40°41' W 074°04'0 0.0
2017-Apr-20 09:59N 40°41' W 074°04'0 0.0
2017-Apr-20 09:29N 40°41' W 074°04'0 0.0
2017-Apr-20 08:59N 40°41' W 074°04'0 0.0
2017-Apr-20 08:29N 40°41' W 074°04'0 0.0
2017-Apr-20 07:59N 40°41' W 074°04'0 0.0
2017-Apr-20 07:29N 40°41' W 074°04'0 0.0
2017-Apr-20 06:59N 40°41' W 074°04'0 0.0
2017-Apr-20 06:29N 40°41' W 074°04'0 0.0
2017-Apr-20 05:59N 40°41' W 074°04'0 0.0
2017-Apr-20 05:29N 40°41' W 074°04'0 0.0
2017-Apr-20 04:59N 40°41' W 074°04'0 0.0
2017-Apr-20 04:29N 40°41' W 074°04'0 0.0
2017-Apr-20 03:59N 40°41' W 074°04'0 0.0
2017-Apr-20 03:29N 40°41' W 074°04'0 0.0
2017-Apr-20 02:59N 40°41' W 074°04'0 0.0
2017-Apr-20 02:29N 40°41' W 074°04'0 0.0
2017-Apr-20 01:59N 40°41' W 074°04'0 0.0
2017-Apr-20 01:29N 40°41' W 074°04'0 0.0
2017-Apr-20 00:59N 40°41' W 074°04'0 0.0
2017-Apr-20 00:29N 40°41' W 074°04'0 0.0
2017-Apr-19 23:59N 40°41' W 074°04'0 0.0
2017-Apr-19 23:29N 40°41' W 074°04'0 0.0
2017-Apr-19 22:59N 40°41' W 074°04'0 0.0
2017-Apr-19 22:29N 40°41' W 074°04'0 0.0
2017-Apr-19 21:59N 40°41' W 074°04'0 0.0
2017-Apr-19 21:29N 40°41' W 074°04'0 0.0
2017-Apr-19 20:59N 40°41' W 074°04'0 0.0
2017-Apr-19 20:29N 40°41' W 074°04'0 0.0
2017-Apr-19 19:59N 40°41' W 074°04'0 0.0
2017-Apr-19 19:29N 40°41' W 074°04'0 0.0
2017-Apr-19 18:59N 40°41' W 074°04'0 0.0
2017-Apr-19 18:29N 40°41' W 074°04'0 0.0
2017-Apr-19 17:59N 40°41' W 074°04'0 0.0
2017-Apr-19 17:29N 40°41' W 074°04'0 0.0
2017-Apr-19 16:59N 40°41' W 074°04'0 0.0
2017-Apr-19 16:29N 40°41' W 074°04'0 0.0
2017-Apr-19 15:59N 40°41' W 074°04'0 0.0
2017-Apr-19 15:29N 40°41' W 074°04'0 0.0
2017-Apr-19 14:59N 40°41' W 074°04'0 0.0
2017-Apr-19 14:29N 40°41' W 074°04'0 0.0
2017-Apr-19 13:29N 40°41' W 074°04'0 0.0
2017-Apr-19 12:59N 40°41' W 074°04'0 0.0
2017-Apr-19 12:29N 40°41' W 074°04'0 0.0
2017-Apr-19 11:59N 40°41' W 074°04'0 0.0
2017-Apr-19 11:29N 40°41' W 074°04'0 0.0
2017-Apr-19 10:59N 40°41' W 074°04'0 0.0
2017-Apr-19 10:29N 40°41' W 074°04'0 0.0
2017-Apr-19 09:59N 40°41' W 074°04'0 0.0
2017-Apr-19 09:29N 40°41' W 074°04'0 0.0
2017-Apr-19 08:59N 40°41' W 074°04'0 0.0
2017-Apr-19 08:29N 40°41' W 074°04'0 0.0
2017-Apr-19 07:59N 40°41' W 074°04'0 0.0
2017-Apr-19 07:29N 40°41' W 074°04'0 0.0
2017-Apr-19 06:59N 40°41' W 074°04'0 0.0
2017-Apr-19 06:29N 40°41' W 074°04'0 0.0
2017-Apr-19 05:59N 40°41' W 074°04'0 0.0
2017-Apr-19 05:29N 40°41' W 074°04'0 0.0
2017-Apr-19 04:59N 40°41' W 074°04'0 0.0
2017-Apr-19 04:29N 40°41' W 074°04'0 0.0
2017-Apr-19 03:59N 40°41' W 074°04'0 0.0
2017-Apr-19 03:29N 40°41' W 074°04'0 0.0
2017-Apr-19 02:59N 40°41' W 074°04'0 0.0
2017-Apr-19 02:29N 40°41' W 074°04'0 0.0
2017-Apr-19 01:59N 40°41' W 074°04'0 0.0
2017-Apr-19 01:29N 40°41' W 074°04'0 0.0
2017-Apr-19 00:59N 40°41' W 074°04'0 0.0
2017-Apr-19 00:29N 40°41' W 074°04'0 0.0
2017-Apr-18 23:59N 40°41' W 074°04'0 0.0
2017-Apr-18 23:29N 40°41' W 074°04'0 0.0
2017-Apr-18 22:59N 40°41' W 074°04'0 0.0
2017-Apr-18 22:29N 40°41' W 074°04'0 0.0
2017-Apr-18 21:59N 40°41' W 074°04'0 0.0
2017-Apr-18 21:29N 40°41' W 074°04'0 0.0
2017-Apr-18 20:59N 40°41' W 074°04'0 0.0
2017-Apr-18 20:29N 40°41' W 074°04'0 0.0
2017-Apr-18 19:59N 40°41' W 074°04'0 0.0
2017-Apr-18 19:29N 40°41' W 074°04'0 0.0
2017-Apr-18 18:59N 40°41' W 074°04'0 0.0
2017-Apr-18 18:29N 40°41' W 074°04'0 0.0
2017-Apr-18 17:59N 40°41' W 074°04'0 0.0
2017-Apr-18 17:29N 40°41' W 074°04'0 0.0
2017-Apr-18 16:59N 40°41' W 074°04'0 0.0
2017-Apr-18 16:29N 40°41' W 074°04'0 0.0
2017-Apr-18 15:59N 40°41' W 074°04'0 0.0
2017-Apr-18 15:29N 40°41' W 074°04'0 0.0
2017-Apr-18 14:59N 40°41' W 074°04'0 0.0
2017-Apr-18 14:29N 40°41' W 074°04'0 0.0
2017-Apr-18 13:29N 40°41' W 074°04'0 0.0
2017-Apr-18 12:59N 40°41' W 074°04'0 0.0
2017-Apr-18 12:29N 40°41' W 074°04'0 0.0
2017-Apr-18 11:59N 40°41' W 074°04'0 0.0
2017-Apr-18 11:29N 40°41' W 074°04'0 0.0
2017-Apr-18 10:59N 40°41' W 074°04'0 0.0
2017-Apr-18 10:29N 40°41' W 074°04'0 0.0
2017-Apr-18 09:59N 40°41' W 074°04'0 0.0
2017-Apr-18 09:29N 40°41' W 074°04'0 0.0
2017-Apr-18 08:59N 40°41' W 074°04'0 0.0
2017-Apr-18 08:29N 40°41' W 074°04'0 0.0
2017-Apr-18 07:59N 40°41' W 074°04'0 0.0
2017-Apr-18 07:29N 40°41' W 074°04'0 0.0
2017-Apr-18 06:59N 40°41' W 074°04'0 0.0
2017-Apr-18 06:29N 40°41' W 074°04'0 0.0
2017-Apr-18 05:59N 40°41' W 074°04'0 0.0
2017-Apr-18 05:29N 40°41' W 074°04'0 0.0
2017-Apr-18 04:59N 40°41' W 074°04'0 0.0
2017-Apr-18 04:29N 40°41' W 074°04'0 0.0
2017-Apr-18 03:59N 40°41' W 074°04'0 0.0
2017-Apr-18 03:29N 40°41' W 074°04'0 0.0
2017-Apr-18 02:59N 40°41' W 074°04'0 0.0
2017-Apr-18 02:29N 40°41' W 074°04'0 0.0
2017-Apr-18 01:59N 40°41' W 074°04'0 0.0
2017-Apr-18 01:29N 40°41' W 074°04'0 0.0
2017-Apr-18 00:59N 40°41' W 074°04'0 0.0
2017-Apr-18 00:29N 40°41' W 074°04'0 0.0
2017-Apr-17 23:59N 40°41' W 074°04'0 0.0
2017-Apr-17 23:29N 40°41' W 074°04'0 0.0
2017-Apr-17 22:59N 40°41' W 074°04'0 0.0
2017-Apr-17 22:29N 40°41' W 074°04'0 0.0
2017-Apr-17 21:59N 40°41' W 074°04'0 0.0
2017-Apr-17 21:29N 40°41' W 074°04'0 0.0
2017-Apr-17 20:56N 40°41' W 074°04'0 0.0
2017-Apr-17 20:29N 40°41' W 074°04'0 0.0
2017-Apr-17 19:59N 40°41' W 074°04'0 0.0
2017-Apr-17 19:29N 40°41' W 074°04'0 0.0
2017-Apr-17 18:59N 40°41' W 074°04'0 0.0
2017-Apr-17 18:29N 40°41' W 074°04'0 0.0
2017-Apr-17 17:59N 40°41' W 074°04'0 0.0
2017-Apr-17 17:29N 40°41' W 074°04'0 0.0
2017-Apr-17 16:59N 40°41' W 074°04'0 0.0
2017-Apr-17 16:29N 40°41' W 074°04'0 0.0
2017-Apr-17 15:59N 40°41' W 074°04'0 0.0
2017-Apr-17 15:29N 40°41' W 074°04'0 0.0
2017-Apr-17 14:59N 40°41' W 074°04'0 0.0
2017-Apr-17 14:29N 40°41' W 074°04'0 0.0
2017-Apr-17 13:29N 40°41' W 074°04'0 0.0
2017-Apr-17 12:59N 40°41' W 074°04'0 0.0
2017-Apr-17 12:29N 40°41' W 074°04'0 0.0
2017-Apr-17 11:59N 40°41' W 074°04'0 0.0
2017-Apr-17 11:29N 40°41' W 074°04'0 0.0
2017-Apr-17 10:59N 40°41' W 074°04'0 0.0
2017-Apr-17 10:29N 40°41' W 074°04'0 0.0
2017-Apr-17 09:59N 40°41' W 074°04'0 0.0
2017-Apr-17 09:29N 40°41' W 074°04'0 0.0
2017-Apr-17 08:59N 40°41' W 074°04'0 0.0
2017-Apr-17 08:29N 40°41' W 074°04'0 0.0
2017-Apr-17 07:59N 40°41' W 074°04'0 0.0
2017-Apr-17 07:29N 40°41' W 074°04'0 0.0
2017-Apr-17 06:59N 40°41' W 074°04'0 0.0
2017-Apr-17 06:29N 40°41' W 074°04'0 0.0
2017-Apr-17 05:59N 40°41' W 074°04'0 0.0
2017-Apr-17 05:29N 40°41' W 074°04'0 0.0
2017-Apr-17 04:59N 40°41' W 074°04'0 0.0
2017-Apr-17 04:29N 40°41' W 074°04'0 0.0
2017-Apr-17 03:59N 40°41' W 074°04'0 0.0
2017-Apr-17 03:29N 40°41' W 074°04'0 0.0
2017-Apr-17 02:59N 40°41' W 074°04'0 0.0
2017-Apr-17 02:29N 40°41' W 074°04'0 0.0
2017-Apr-17 01:59N 40°41' W 074°04'0 0.0
2017-Apr-17 01:29N 40°41' W 074°04'0 0.0
2017-Apr-17 00:59N 40°41' W 074°04'0 0.0
2017-Apr-17 00:29N 40°41' W 074°04'0 0.0
2017-Apr-16 23:59N 40°41' W 074°04'0 0.0
2017-Apr-16 23:29N 40°41' W 074°04'0 0.0
2017-Apr-16 22:59N 40°41' W 074°04'0 0.0
2017-Apr-16 22:29N 40°41' W 074°04'0 0.0
2017-Apr-16 21:59N 40°41' W 074°04'0 0.0
2017-Apr-16 21:29N 40°41' W 074°04'0 0.0
2017-Apr-16 20:59N 40°41' W 074°04'0 0.0
2017-Apr-16 20:29N 40°41' W 074°04'0 0.0
2017-Apr-16 19:59N 40°41' W 074°04'0 0.0
2017-Apr-16 19:26N 40°41' W 074°04'0 0.0
2017-Apr-16 18:59N 40°41' W 074°04'0 0.0
2017-Apr-16 18:29N 40°41' W 074°04'0 0.0
2017-Apr-16 17:59N 40°41' W 074°04'0 0.0
2017-Apr-16 17:29N 40°41' W 074°04'0 0.0
2017-Apr-16 16:59N 40°41' W 074°04'0 0.0
2017-Apr-16 16:26N 40°41' W 074°04'0 0.0
2017-Apr-16 15:59N 40°41' W 074°04'0 0.0
2017-Apr-16 15:29N 40°41' W 074°04'0 0.0
2017-Apr-16 14:59N 40°41' W 074°04'0 0.0
2017-Apr-16 14:29N 40°41' W 074°04'0 0.0
2017-Apr-16 13:29N 40°41' W 074°04'0 0.0
2017-Apr-16 12:59N 40°41' W 074°04'0 0.0
2017-Apr-16 12:29N 40°41' W 074°04'0 0.0
2017-Apr-16 11:59N 40°41' W 074°04'0 0.0
2017-Apr-16 11:29N 40°41' W 074°04'0 0.0
2017-Apr-16 10:59N 40°41' W 074°04'0 0.0
2017-Apr-16 10:29N 40°41' W 074°04'0 0.0
2017-Apr-16 09:59N 40°41' W 074°04'0 0.0
2017-Apr-16 09:29N 40°41' W 074°04'0 0.0
2017-Apr-16 08:59N 40°41' W 074°04'0 0.0
2017-Apr-16 08:29N 40°41' W 074°04'0 0.0
2017-Apr-16 07:59N 40°41' W 074°04'0 0.0
2017-Apr-16 07:29N 40°41' W 074°04'0 0.0
2017-Apr-16 06:59N 40°41' W 074°04'0 0.0
2017-Apr-16 06:29N 40°41' W 074°04'0 0.0
2017-Apr-16 05:59N 40°41' W 074°04'0 0.0
2017-Apr-16 05:29N 40°41' W 074°04'0 0.0
2017-Apr-16 04:59N 40°41' W 074°04'0 0.0
2017-Apr-16 04:29N 40°41' W 074°04'0 0.0
2017-Apr-16 03:59N 40°41' W 074°04'0 0.0
2017-Apr-16 03:29N 40°41' W 074°04'0 0.0
2017-Apr-16 02:59N 40°41' W 074°04'0 0.0
2017-Apr-16 02:29N 40°41' W 074°04'  

Dump ship's entire track history